createdAt,value
2023-03-19T00:01:12.963Z,101763.88
2023-03-19T00:03:42.127Z,101760.53
2023-03-19T00:06:10.179Z,101754.16
2023-03-19T00:08:38.130Z,101755.16
2023-03-19T00:11:10.757Z,101754.50
2023-03-19T00:13:39.342Z,101750.00
2023-03-19T00:16:09.095Z,101747.56
2023-03-19T00:18:37.732Z,101755.53
2023-03-19T00:21:05.887Z,101757.59
2023-03-19T00:23:33.878Z,101751.00
2023-03-19T00:26:02.033Z,101757.03
2023-03-19T00:28:33.153Z,101756.56
2023-03-19T00:31:11.759Z,101760.63
2023-03-19T00:33:39.823Z,101752.72
2023-03-19T00:36:08.045Z,101749.50
2023-03-19T00:38:36.581Z,101753.03
2023-03-19T00:41:07.615Z,101752.56
2023-03-19T00:43:35.359Z,101749.38
2023-03-19T00:46:03.107Z,101745.53
2023-03-19T00:48:30.896Z,101750.84
2023-03-19T00:51:08.250Z,101746.78
2023-03-19T00:53:42.657Z,101758.50
2023-03-19T00:56:11.696Z,101746.69
2023-03-19T00:58:41.242Z,101747.13
2023-03-19T01:01:09.855Z,101746.22
2023-03-19T01:03:38.792Z,101754.31
2023-03-19T01:06:07.091Z,101751.41
2023-03-19T01:08:35.524Z,101745.31
2023-03-19T01:11:12.054Z,101748.09
2023-03-19T01:13:40.059Z,101744.09
2023-03-19T01:16:08.386Z,101755.25
2023-03-19T01:18:36.404Z,101757.44
2023-03-19T01:21:05.485Z,101749.56
2023-03-19T01:23:35.552Z,101757.09
2023-03-19T01:26:05.407Z,101752.91
2023-03-19T01:28:33.337Z,101752.31
2023-03-19T01:31:02.113Z,101756.41
2023-03-19T01:33:50.942Z,101759.88
2023-03-19T01:36:28.297Z,101761.81
2023-03-19T01:39:03.352Z,101756.78
2023-03-19T01:41:31.437Z,101758.94
2023-03-19T01:44:32.037Z,101755.50
2023-03-19T01:47:36.894Z,101752.47
2023-03-19T01:50:27.421Z,101752.06
2023-03-19T01:53:16.451Z,101749.75
2023-03-19T01:55:53.306Z,101752.94
2023-03-19T01:58:47.153Z,101745.84
2023-03-19T02:01:34.399Z,101745.00
2023-03-19T02:04:02.411Z,101743.59
2023-03-19T02:06:33.166Z,101749.09
2023-03-19T02:09:01.995Z,101739.09
2023-03-19T02:11:29.920Z,101748.19
2023-03-19T02:13:59.890Z,101758.53
2023-03-19T02:16:28.231Z,101746.44
2023-03-19T02:18:56.725Z,101743.75
2023-03-19T02:21:24.451Z,101753.47
2023-03-19T02:24:12.835Z,101758.00
2023-03-19T02:27:03.826Z,101751.16
2023-03-19T02:29:33.651Z,101754.78
2023-03-19T02:32:03.803Z,101751.59
2023-03-19T02:34:39.105Z,101754.66
2023-03-19T02:37:13.423Z,101759.75
2023-03-19T02:39:48.418Z,101753.66
2023-03-19T02:42:17.258Z,101755.25
2023-03-19T02:44:46.295Z,101760.53
2023-03-19T02:47:17.300Z,101761.53
2023-03-19T02:49:45.324Z,101752.34
2023-03-19T02:52:13.163Z,101753.94
2023-03-19T02:54:41.524Z,101754.56
2023-03-19T02:57:09.397Z,101753.91
2023-03-19T02:59:39.175Z,101758.78
2023-03-19T03:02:08.392Z,101762.25
2023-03-19T03:04:37.420Z,101764.03
2023-03-19T03:07:06.400Z,101756.66
2023-03-19T03:09:35.937Z,101764.91
2023-03-19T03:12:04.050Z,101754.31
2023-03-19T03:14:33.166Z,101747.97
2023-03-19T03:17:01.152Z,101754.00
2023-03-19T03:19:28.753Z,101752.75
2023-03-19T03:21:56.527Z,101757.31
2023-03-19T03:24:25.132Z,101755.84
2023-03-19T03:26:56.458Z,101758.84
2023-03-19T03:29:24.217Z,101749.09
2023-03-19T03:31:52.086Z,101759.16
2023-03-19T03:34:27.530Z,101751.94
2023-03-19T03:36:58.214Z,101757.72
2023-03-19T03:39:25.928Z,101758.44
2023-03-19T03:41:54.054Z,101757.28
2023-03-19T03:44:21.862Z,101748.84
2023-03-19T03:46:50.812Z,101750.03
2023-03-19T03:49:18.769Z,101755.81
2023-03-19T03:51:46.357Z,101750.75
2023-03-19T03:54:14.516Z,101755.00
2023-03-19T03:56:42.364Z,101756.50
2023-03-19T03:59:13.323Z,101755.81
2023-03-19T04:01:42.296Z,101758.88
2023-03-19T04:04:09.978Z,101761.06
2023-03-19T04:06:39.925Z,101763.66
2023-03-19T04:09:27.309Z,101761.44
2023-03-19T04:11:55.164Z,101757.31
2023-03-19T04:14:24.099Z,101755.28
2023-03-19T04:16:52.272Z,101756.09
2023-03-19T04:19:20.548Z,101758.06
2023-03-19T04:21:53.667Z,101755.56
2023-03-19T04:24:22.011Z,101763.31
2023-03-19T04:26:50.288Z,101754.16
2023-03-19T04:29:21.332Z,101750.97
2023-03-19T04:31:49.259Z,101750.56
2023-03-19T04:34:17.770Z,101759.75
2023-03-19T04:36:45.749Z,101762.66
2023-03-19T04:39:13.788Z,101755.28
2023-03-19T04:41:41.590Z,101751.63
2023-03-19T04:44:28.086Z,101762.75
2023-03-19T04:46:56.343Z,101757.88
2023-03-19T04:49:24.765Z,101760.78
2023-03-19T04:51:53.454Z,101764.22
2023-03-19T04:54:24.701Z,101765.69
2023-03-19T04:56:53.428Z,101756.41
2023-03-19T04:59:24.868Z,101762.75
2023-03-19T05:01:53.438Z,101762.28
2023-03-19T05:04:24.170Z,101751.97
2023-03-19T05:06:55.038Z,101757.28
2023-03-19T05:09:22.827Z,101754.25
2023-03-19T05:11:51.934Z,101758.28
2023-03-19T05:14:22.353Z,101755.44
2023-03-19T05:17:13.710Z,101760.78
2023-03-19T05:20:05.126Z,101757.22
2023-03-19T05:22:34.538Z,101760.25
2023-03-19T05:25:02.689Z,101770.38
2023-03-19T05:27:37.065Z,101771.78
2023-03-19T05:30:11.148Z,101772.13
2023-03-19T05:32:58.991Z,101769.63
2023-03-19T05:35:39.419Z,101770.72
2023-03-19T05:38:15.700Z,101766.78
2023-03-19T05:40:52.577Z,101762.66
2023-03-19T05:43:27.679Z,101770.84
2023-03-19T05:45:57.008Z,101769.66
2023-03-19T05:48:30.455Z,101769.13
2023-03-19T05:51:02.322Z,101769.25
2023-03-19T05:53:38.290Z,101771.44
2023-03-19T05:56:24.866Z,101759.31
2023-03-19T05:59:14.448Z,101757.19
2023-03-19T06:01:47.468Z,101765.72
2023-03-19T06:04:18.454Z,101758.75
2023-03-19T06:06:47.411Z,101761.16
2023-03-19T06:09:15.506Z,101764.75
2023-03-19T06:11:48.089Z,101767.69
2023-03-19T06:14:36.805Z,101760.59
2023-03-19T06:17:27.445Z,101773.56
2023-03-19T06:19:58.971Z,101767.31
2023-03-19T06:22:27.303Z,101761.97
2023-03-19T06:24:55.359Z,101773.22
2023-03-19T06:27:23.468Z,101767.78
2023-03-19T06:29:52.467Z,101767.75
2023-03-19T06:32:26.646Z,101769.78
2023-03-19T06:34:56.423Z,101767.72
2023-03-19T06:37:24.436Z,101770.75
2023-03-19T06:39:54.856Z,101760.16
2023-03-19T06:42:22.546Z,101760.44
2023-03-19T06:44:53.857Z,101774.00
2023-03-19T06:47:22.067Z,101761.53
2023-03-19T06:49:49.758Z,101756.31
2023-03-19T06:52:17.461Z,101760.19
2023-03-19T06:54:45.566Z,101767.81
2023-03-19T06:57:13.337Z,101767.31
2023-03-19T06:59:41.862Z,101755.56
2023-03-19T07:02:12.925Z,101760.44
2023-03-19T07:04:42.063Z,101759.53
2023-03-19T07:07:10.111Z,101762.50
2023-03-19T07:09:38.623Z,101755.09
2023-03-19T07:12:10.255Z,101750.22
2023-03-19T07:14:40.273Z,101757.47
2023-03-19T07:17:10.380Z,101758.91
2023-03-19T07:19:45.324Z,101755.88
2023-03-19T07:22:14.104Z,101756.31
2023-03-19T07:24:42.749Z,101753.53
2023-03-19T07:27:12.757Z,101759.56
2023-03-19T07:29:41.370Z,101755.31
2023-03-19T07:32:12.537Z,101751.63
2023-03-19T07:34:42.140Z,101755.69
2023-03-19T07:37:11.129Z,101756.66
2023-03-19T07:39:39.785Z,101749.63
2023-03-19T07:42:10.844Z,101752.94
2023-03-19T07:44:41.057Z,101753.00
2023-03-19T07:47:27.957Z,101740.88
2023-03-19T07:49:58.383Z,101749.72
2023-03-19T07:52:28.469Z,101746.84
2023-03-19T07:55:00.571Z,101753.75
2023-03-19T07:57:30.842Z,101754.16
2023-03-19T07:59:59.811Z,101743.22
2023-03-19T08:02:28.368Z,101744.66
2023-03-19T08:04:57.739Z,101747.84
2023-03-19T08:07:26.268Z,101739.66
2023-03-19T08:09:55.230Z,101756.38
2023-03-19T08:12:26.637Z,101740.69
2023-03-19T08:15:07.073Z,101746.41
2023-03-19T08:17:50.605Z,101748.88
2023-03-19T08:20:21.499Z,101751.69
2023-03-19T08:22:51.350Z,101753.22
2023-03-19T08:25:19.791Z,101744.03
2023-03-19T08:27:51.765Z,101750.72
2023-03-19T08:30:21.375Z,101750.91
2023-03-19T08:32:51.381Z,101744.06
2023-03-19T08:35:22.723Z,101753.69
2023-03-19T08:37:53.611Z,101729.88
2023-03-19T08:40:22.140Z,101739.06
2023-03-19T08:42:54.446Z,101735.22
2023-03-19T08:45:27.176Z,101738.59
2023-03-19T08:47:59.069Z,101735.38
2023-03-19T08:50:30.089Z,101731.91
2023-03-19T08:52:59.381Z,101740.31
2023-03-19T08:55:28.317Z,101736.03
2023-03-19T08:57:56.549Z,101737.53
2023-03-19T09:00:26.462Z,101753.22
2023-03-19T09:02:56.693Z,101741.94
2023-03-19T09:05:29.659Z,101735.09
2023-03-19T09:08:17.836Z,101732.09
2023-03-19T09:10:55.389Z,101722.50
2023-03-19T09:13:25.909Z,101727.22
2023-03-19T09:18:47.065Z,101712.78
2023-03-19T09:21:15.907Z,101712.22
2023-03-19T09:23:44.943Z,101715.38
2023-03-19T09:26:17.728Z,101717.50
2023-03-19T09:28:47.621Z,101705.75
2023-03-19T09:31:19.736Z,101701.22
2023-03-19T09:33:47.858Z,101708.63
2023-03-19T09:36:16.994Z,101704.50
2023-03-19T09:38:45.150Z,101707.50
2023-03-19T09:41:39.819Z,101700.28
2023-03-19T09:47:35.373Z,101693.13
2023-03-19T09:50:25.015Z,101691.47
2023-03-19T09:53:13.890Z,101695.50
2023-03-19T09:55:54.917Z,101685.59
2023-03-19T09:58:27.477Z,101688.97
2023-03-19T10:00:56.241Z,101675.91
2023-03-19T10:03:40.958Z,101664.75
2023-03-19T10:06:21.495Z,101670.06
2023-03-19T10:09:12.104Z,101674.31
2023-03-19T10:15:22.632Z,101659.75
2023-03-19T10:18:26.926Z,101661.66
2023-03-19T10:21:09.666Z,101650.22
2023-03-19T10:24:05.814Z,101644.25
2023-03-19T10:26:36.953Z,101640.97
2023-03-19T10:29:20.545Z,101637.19
2023-03-19T10:31:58.998Z,101635.34
2023-03-19T10:34:32.260Z,101642.28
2023-03-19T10:37:31.076Z,101639.63
2023-03-19T10:40:00.733Z,101644.28
2023-03-19T10:42:59.710Z,101630.59
2023-03-19T10:45:39.702Z,101629.97
2023-03-19T10:48:13.250Z,101622.25
2023-03-19T10:50:48.801Z,101625.22
2023-03-19T10:53:16.710Z,101629.44
2023-03-19T10:55:48.279Z,101636.94
2023-03-19T10:58:19.793Z,101638.59
2023-03-19T11:00:51.355Z,101623.56
2023-03-19T11:03:49.225Z,101614.94
2023-03-19T11:06:39.018Z,101614.50
2023-03-19T11:09:15.839Z,101608.28
2023-03-19T11:11:57.843Z,101607.31
2023-03-19T11:14:36.389Z,101617.88
2023-03-19T11:17:26.091Z,101608.78
2023-03-19T11:19:59.405Z,101604.63
2023-03-19T11:22:33.119Z,101610.06
2023-03-19T11:25:02.770Z,101607.59
2023-03-19T11:27:35.358Z,101618.38
2023-03-19T11:30:16.000Z,101617.13
2023-03-19T11:32:56.271Z,101611.66
2023-03-19T11:35:29.278Z,101606.75
2023-03-19T11:38:01.911Z,101601.91
2023-03-19T11:40:42.797Z,101600.06
2023-03-19T11:43:32.757Z,101592.88
2023-03-19T11:46:41.259Z,101604.13
2023-03-19T11:49:27.882Z,101587.56
2023-03-19T11:52:05.092Z,101579.72
2023-03-19T11:55:06.582Z,101583.22
2023-03-19T11:58:02.056Z,101577.13
2023-03-19T12:00:52.619Z,101581.69
2023-03-19T12:03:25.031Z,101588.66
2023-03-19T12:06:24.152Z,101586.72
2023-03-19T12:08:58.241Z,101593.47
2023-03-19T12:11:35.929Z,101588.78
2023-03-19T12:14:20.258Z,101591.06
2023-03-19T12:17:21.790Z,101592.22
2023-03-19T12:20:30.139Z,101592.84
2023-03-19T12:23:08.032Z,101601.81
2023-03-19T12:25:47.056Z,101600.38
2023-03-19T12:28:28.142Z,101588.31
2023-03-19T12:31:29.832Z,101593.00
2023-03-19T12:34:09.572Z,101587.91
2023-03-19T12:36:43.015Z,101590.84
2023-03-19T12:39:19.473Z,101583.63
2023-03-19T12:41:48.773Z,101580.03
2023-03-19T12:44:23.045Z,101582.06
2023-03-19T12:47:03.019Z,101580.03
2023-03-19T12:49:31.142Z,101575.66
2023-03-19T12:52:18.568Z,101582.19
2023-03-19T12:54:52.724Z,101577.22
2023-03-19T12:57:27.921Z,101573.41
2023-03-19T13:00:16.253Z,101571.53
2023-03-19T13:02:45.885Z,101574.50
2023-03-19T13:05:31.147Z,101573.00
2023-03-19T13:08:34.725Z,101575.53
2023-03-19T13:11:05.983Z,101580.09
2023-03-19T13:13:43.348Z,101572.88
2023-03-19T13:16:32.753Z,101568.78
2023-03-19T13:19:23.983Z,101563.88
2023-03-19T13:21:56.232Z,101561.13
2023-03-19T13:24:39.149Z,101563.03
2023-03-19T13:27:08.124Z,101558.09
2023-03-19T13:29:39.245Z,101559.44
2023-03-19T13:32:41.353Z,101558.41
2023-03-19T13:35:28.638Z,101552.03
2023-03-19T13:38:02.374Z,101563.69
2023-03-19T13:40:49.365Z,101552.66
2023-03-19T13:43:28.615Z,101557.28
2023-03-19T13:46:06.313Z,101546.81
2023-03-19T13:48:37.553Z,101545.34
2023-03-19T13:51:27.490Z,101544.97
2023-03-19T13:54:19.086Z,101546.50
2023-03-19T13:57:18.786Z,101542.91
2023-03-19T13:59:57.219Z,101536.78
2023-03-19T14:02:31.908Z,101542.84
2023-03-19T14:05:21.898Z,101535.94
2023-03-19T14:07:53.925Z,101544.31
2023-03-19T14:10:26.763Z,101539.38
2023-03-19T14:13:29.678Z,101541.59
2023-03-19T14:16:18.825Z,101535.91
2023-03-19T14:18:48.734Z,101541.16
2023-03-19T14:21:36.348Z,101541.09
2023-03-19T14:27:33.646Z,101532.59
2023-03-19T14:30:03.642Z,101527.91
2023-03-19T14:32:36.022Z,101533.88
2023-03-19T14:35:05.563Z,101533.34
2023-03-19T14:37:46.832Z,101531.91
2023-03-19T14:40:39.296Z,101531.50
2023-03-19T14:43:52.015Z,101535.00
2023-03-19T14:46:54.944Z,101527.34
2023-03-19T14:50:05.444Z,101525.88
2023-03-19T14:52:39.067Z,101533.44
2023-03-19T14:55:11.538Z,101532.28
2023-03-19T14:57:43.860Z,101533.50
2023-03-19T15:00:19.659Z,101518.19
2023-03-19T15:02:51.319Z,101522.22
2023-03-19T15:05:33.826Z,101522.41
2023-03-19T15:08:11.972Z,101521.25
2023-03-19T15:11:22.513Z,101516.13
2023-03-19T15:14:05.873Z,101520.31
2023-03-19T15:17:02.259Z,101530.09
2023-03-19T15:19:31.828Z,101531.22
2023-03-19T15:22:21.146Z,101528.31
2023-03-19T15:24:50.327Z,101529.03
2023-03-19T15:27:38.078Z,101537.66
2023-03-19T15:30:22.934Z,101532.03
2023-03-19T15:33:04.413Z,101537.25
2023-03-19T15:35:37.000Z,101528.63
2023-03-19T15:38:29.943Z,101526.81
2023-03-19T15:40:58.460Z,101516.78
2023-03-19T15:43:28.725Z,101526.09
2023-03-19T15:45:57.226Z,101530.88
2023-03-19T15:48:44.669Z,101527.59
2023-03-19T15:51:13.009Z,101529.22
2023-03-19T15:53:40.981Z,101534.06
2023-03-19T15:56:09.616Z,101537.00
2023-03-19T15:58:44.822Z,101539.97
2023-03-19T16:01:13.708Z,101540.44
2023-03-19T16:03:45.102Z,101544.34
2023-03-19T16:06:17.843Z,101546.44
2023-03-19T16:09:00.829Z,101545.63
2023-03-19T16:11:58.333Z,101551.78
2023-03-19T16:14:27.576Z,101545.81
2023-03-19T16:17:15.060Z,101549.88
2023-03-19T16:19:54.874Z,101549.16
2023-03-19T16:22:30.341Z,101551.66
2023-03-19T16:24:58.794Z,101553.00
2023-03-19T16:27:34.848Z,101559.00
2023-03-19T16:30:28.293Z,101554.13
2023-03-19T16:33:04.297Z,101546.16
2023-03-19T16:35:33.794Z,101552.72
2023-03-19T16:38:22.027Z,101552.75
2023-03-19T16:41:11.355Z,101543.66
2023-03-19T16:43:57.235Z,101548.41
2023-03-19T16:46:28.486Z,101533.00
2023-03-19T16:49:04.874Z,101542.25
2023-03-19T16:51:34.101Z,101537.84
2023-03-19T16:54:02.200Z,101531.69
2023-03-19T16:56:31.511Z,101538.84
2023-03-19T16:59:03.482Z,101538.22
2023-03-19T17:01:32.782Z,101531.06
2023-03-19T17:04:00.758Z,101536.88
2023-03-19T17:06:31.910Z,101540.50
2023-03-19T17:09:01.244Z,101540.88
2023-03-19T17:11:40.814Z,101548.28
2023-03-19T17:14:44.624Z,101543.31
2023-03-19T17:17:17.932Z,101546.44
2023-03-19T17:19:47.584Z,101531.13
2023-03-19T17:22:19.437Z,101536.53
2023-03-19T17:24:49.965Z,101534.03
2023-03-19T17:27:19.418Z,101536.97
2023-03-19T17:29:48.024Z,101539.59
2023-03-19T17:32:19.165Z,101540.31
2023-03-19T17:34:53.195Z,101538.47
2023-03-19T17:37:21.531Z,101535.47
2023-03-19T17:39:49.641Z,101542.50
2023-03-19T17:42:21.645Z,101543.41
2023-03-19T17:44:49.776Z,101539.28
2023-03-19T17:47:18.493Z,101535.34
2023-03-19T17:49:47.112Z,101533.41
2023-03-19T17:52:18.421Z,101537.03
2023-03-19T17:54:47.757Z,101535.66
2023-03-19T17:57:16.462Z,101533.75
2023-03-19T17:59:45.301Z,101525.47
2023-03-19T18:02:26.973Z,101525.81
2023-03-19T18:04:57.162Z,101529.34
2023-03-19T18:07:25.162Z,101519.38
2023-03-19T18:09:53.165Z,101516.38
2023-03-19T18:12:22.095Z,101525.59
2023-03-19T18:14:50.257Z,101518.94
2023-03-19T18:17:20.982Z,101516.78
2023-03-19T18:19:52.708Z,101530.88
2023-03-19T18:22:23.083Z,101526.22
2023-03-19T18:24:52.304Z,101527.03
2023-03-19T18:27:24.317Z,101521.88
2023-03-19T18:29:53.402Z,101525.28
2023-03-19T18:32:28.647Z,101524.53
2023-03-19T18:34:56.343Z,101520.53
2023-03-19T18:37:24.120Z,101517.38
2023-03-19T18:39:52.219Z,101521.41
2023-03-19T18:42:24.015Z,101523.41
2023-03-19T18:44:52.303Z,101525.69
2023-03-19T18:47:21.605Z,101525.69
2023-03-19T18:49:59.215Z,101513.31
2023-03-19T18:52:27.231Z,101517.38
2023-03-19T18:54:55.140Z,101516.03
2023-03-19T18:57:23.083Z,101517.03
2023-03-19T18:59:52.114Z,101506.81
2023-03-19T19:02:34.417Z,101508.69
2023-03-19T19:05:04.250Z,101513.84
2023-03-19T19:07:33.616Z,101511.66
2023-03-19T19:10:08.616Z,101506.38
2023-03-19T19:12:41.029Z,101510.25
2023-03-19T19:15:15.008Z,101511.72
2023-03-19T19:17:43.765Z,101521.31
2023-03-19T19:20:16.916Z,101516.56
2023-03-19T19:22:52.951Z,101509.56
2023-03-19T19:25:27.181Z,101509.09
2023-03-19T19:27:59.373Z,101500.16
2023-03-19T19:30:30.436Z,101501.66
2023-03-19T19:32:58.741Z,101508.41
2023-03-19T19:35:32.841Z,101510.53
2023-03-19T19:38:03.601Z,101506.22
2023-03-19T19:40:32.562Z,101502.69
2023-03-19T19:43:03.707Z,101501.84
2023-03-19T19:45:34.097Z,101504.56
2023-03-19T19:48:02.494Z,101504.75
2023-03-19T19:50:32.720Z,101503.56
2023-03-19T19:53:00.852Z,101502.84
2023-03-19T19:55:33.198Z,101507.03
2023-03-19T19:58:01.477Z,101506.09
2023-03-19T20:00:31.832Z,101506.50
2023-03-19T20:03:00.766Z,101496.78
2023-03-19T20:05:31.384Z,101495.63
2023-03-19T20:08:03.305Z,101493.91
2023-03-19T20:10:33.767Z,101492.03
2023-03-19T20:13:01.944Z,101495.00
2023-03-19T20:15:33.353Z,101493.50
2023-03-19T20:18:06.240Z,101494.72
2023-03-19T20:20:35.252Z,101493.66
2023-03-19T20:23:04.408Z,101498.28
2023-03-19T20:25:35.477Z,101496.94
2023-03-19T20:28:04.297Z,101489.66
2023-03-19T20:30:34.265Z,101491.59
2023-03-19T20:33:04.903Z,101488.25
2023-03-19T20:35:35.071Z,101487.25
2023-03-19T20:38:05.275Z,101492.69
2023-03-19T20:40:38.579Z,101489.31
2023-03-19T20:43:10.078Z,101486.28
2023-03-19T20:45:39.045Z,101485.13
2023-03-19T20:48:19.596Z,101481.00
2023-03-19T20:50:49.045Z,101493.28
2023-03-19T20:53:17.130Z,101491.59
2023-03-19T20:55:45.698Z,101484.13
2023-03-19T20:58:25.758Z,101483.56
2023-03-19T21:00:54.888Z,101492.34
2023-03-19T21:03:24.617Z,101493.94
2023-03-19T21:05:56.082Z,101495.81
2023-03-19T21:08:36.179Z,101494.13
2023-03-19T21:11:04.677Z,101496.22
2023-03-19T21:13:38.238Z,101492.97
2023-03-19T21:16:07.488Z,101505.41
2023-03-19T21:18:35.928Z,101504.78
2023-03-19T21:21:08.142Z,101513.38
2023-03-19T21:23:37.435Z,101508.97
2023-03-19T21:26:17.265Z,101504.53
2023-03-19T21:28:46.062Z,101510.78
2023-03-19T21:31:18.435Z,101512.03
2023-03-19T21:33:50.199Z,101511.34
2023-03-19T21:36:18.076Z,101516.94
2023-03-19T21:38:47.948Z,101511.91
2023-03-19T21:41:21.023Z,101501.91
2023-03-19T21:43:52.878Z,101501.31
2023-03-19T21:46:24.886Z,101505.03
2023-03-19T21:48:57.361Z,101510.28
2023-03-19T21:51:27.408Z,101510.63
2023-03-19T21:53:56.325Z,101517.34
2023-03-19T21:56:34.111Z,101509.03
2023-03-19T21:59:04.110Z,101509.50
2023-03-19T22:01:33.383Z,101510.06
2023-03-19T22:04:01.349Z,101509.50
2023-03-19T22:06:30.395Z,101510.94
2023-03-19T22:08:59.658Z,101511.78
2023-03-19T22:11:29.981Z,101516.06
2023-03-19T22:14:05.521Z,101515.50
2023-03-19T22:16:35.264Z,101517.78
2023-03-19T22:19:03.531Z,101515.50
2023-03-19T22:21:33.048Z,101507.06
2023-03-19T22:24:01.662Z,101506.25
2023-03-19T22:26:34.749Z,101511.94
2023-03-19T22:29:05.306Z,101510.94
2023-03-19T22:31:33.561Z,101504.66
2023-03-19T22:34:02.143Z,101503.94
2023-03-19T22:36:30.924Z,101504.97
2023-03-19T22:38:59.329Z,101499.25
2023-03-19T22:41:31.942Z,101506.50
2023-03-19T22:44:01.445Z,101500.25
2023-03-19T22:46:30.244Z,101493.38
2023-03-19T22:48:58.483Z,101499.94
2023-03-19T22:51:27.827Z,101505.53
2023-03-19T22:53:59.017Z,101503.53
2023-03-19T22:56:27.054Z,101499.22
2023-03-19T22:58:55.186Z,101495.53
2023-03-19T23:01:38.776Z,101497.69
2023-03-19T23:04:21.801Z,101490.69
2023-03-19T23:06:53.207Z,101488.53
2023-03-19T23:09:27.629Z,101491.13
2023-03-19T23:11:56.673Z,101492.31
2023-03-19T23:14:30.800Z,101490.03
2023-03-19T23:17:04.849Z,101493.78
2023-03-19T23:19:37.644Z,101498.34
2023-03-19T23:22:07.214Z,101494.59
2023-03-19T23:24:35.675Z,101481.19
2023-03-19T23:27:05.608Z,101497.34
2023-03-19T23:29:35.801Z,101490.81
2023-03-19T23:32:04.810Z,101494.88
2023-03-19T23:34:39.837Z,101500.25
2023-03-19T23:37:13.823Z,101498.03
2023-03-19T23:40:09.576Z,101492.09
2023-03-19T23:42:39.723Z,101499.88
2023-03-19T23:45:43.769Z,101494.22
2023-03-19T23:48:35.261Z,101499.53
2023-03-19T23:51:04.132Z,101498.53
2023-03-19T23:53:34.072Z,101501.53
2023-03-19T23:56:09.799Z,101498.66
2023-03-19T23:58:43.125Z,101496.66
